Hlavní strana
METAR-TAF:

METAR-TAF

Letiště :

Al Jawf, Saúdská Arábie

zeměpisná šířka: 29-47N, zeměpisná délka: 040-06E, výška: 689 m

Aktuální stav počasí

Zpráva byla vytvořena před 23 minutami, v 22:00 UTC
Severní vítr 4 kt
Teplota 29°C
Vlhkost vzduchu 18%
Tlak 1014 hPa
Viditelnost 10 km a více
Žádná oblačnost pod 1500 m, nevyskytují se cumulonimby.

METAR: OESK 222200Z 36004KT CAVOK 29/02 Q1014

Čas: 01:23 (22:23 UTC)

Předpověď počasí

Zpráva byla vytvořena před 11 hodinami a 23 minutami, v 11:00 UTC
Předpověď platná od 22 v 12 UTC do 23 v 18 UTC
Západní vítr 10 kt
Viditelnost 10 km a více
Žádná oblačnost pod 1500 m, nevyskytují se cumulonimby.
Změna
od 22 v 18 UTC do 22 v 20 UTC
Severní vítr 6 kt

TAF: OESK 221100Z 2212/2318 28010KT CAVOK BECMG 2218/2220 36006KT

Stav a předpovědi počasí z více než 4 000 letišť (zprávy METAR a TAF).

Červené a žluté tečky na mapě představují dostupné meteorologické stanice.

Když kurzor umístíte na tečku, zobrazí se název stanice.

Pak kliknutím zobrazíte stav a předpověď počasí.

Chcete-li změnit mapu, kliknutím na zelené tlačítko se znaménkem +mapu přiblížíte, kliknutím na zelené tlačítko se znaménkem – mapu oddálíte a kliknutím na zelené šipky přejdete na sousední mapy.


METAR-TAF: